Time;durP1;ratioP1;P1;durP2;ratioP2;P2;SDS_P1;SDS_P2;PMS_P1;PMS_P2;Temp;Humidity;BMP_temperature;BMP_pressure;BME280_temperature;BME280_humidity;BME280_pressure;Samples;Min_cycle;Max_cycle;Signal;HPM_P1;HPM_P2
2021/12/13 17:00:30;;;;;;;21.00;9.23;;;;;;;7.39;100.00;102246.50;5168418;27;20409;-77
2021/12/13 17:02:58;;;;;;;21.50;10.25;;;;;;;7.42;100.00;102290.19;5136648;28;20032;-76
2021/12/13 17:05:33;;;;;;;21.88;10.15;;;;;;;7.57;100.00;102294.69;5144967;28;20079;-75
2021/12/13 17:07:59;;;;;;;20.85;9.05;;;;;;;7.36;100.00;102233.53;5115907;28;20047;-76
2021/12/13 17:10:32;;;;;;;19.92;9.10;;;;;;;7.55;100.00;102288.63;5135327;28;20397;-80
2021/12/13 17:12:59;;;;;;;19.33;9.23;;;;;;;7.46;100.00;102271.56;5111969;28;20015;-76
2021/12/13 17:15:32;;;;;;;20.42;9.77;;;;;;;7.57;100.00;102272.81;5133859;28;20024;-76
2021/12/13 17:18:21;;;;;;;20.45;9.82;;;;;;;7.46;100.00;102289.94;5135141;28;20105;-76
2021/12/13 17:21:21;;;;;;;22.42;9.05;;;;;;;7.56;100.00;102286.84;5134583;28;20023;-77
2021/12/13 17:24:11;;;;;;;20.80;10.35;;;;;;;7.41;100.00;102280.59;5119480;28;20117;-78
2021/12/13 17:26:50;;;;;;;22.05;9.65;;;;;;;7.52;100.00;102296.69;5130163;27;20031;-77
2021/12/13 17:29:19;;;;;;;21.05;9.57;;;;;;;7.59;100.00;102282.31;5129738;28;20031;-76
2021/12/13 17:31:47;;;;;;;21.40;9.77;;;;;;;7.53;100.00;102280.81;5134977;27;20024;-75
2021/12/13 17:34:40;;;;;;;19.83;9.35;;;;;;;7.24;100.00;102240.22;5128565;28;20016;-77
2021/12/13 17:37:15;;;;;;;18.48;9.07;;;;;;;7.24;100.00;102236.75;5113899;28;20521;-77
2021/12/13 17:39:46;;;;;;;21.08;9.90;;;;;;;7.24;100.00;102255.16;5132853;28;20023;-76
2021/12/13 17:42:18;;;;;;;22.25;9.52;;;;;;;7.16;100.00;102224.00;5119757;28;20047;-81
2021/12/13 17:44:46;;;;;;;19.77;9.07;;;;;;;7.46;100.00;102282.06;5137698;28;20480;-79
2021/12/13 17:47:12;;;;;;;17.92;9.45;;;;;;;7.20;100.00;102230.81;5140657;28;20015;-82
2021/12/13 17:49:56;;;;;;;19.67;10.25;;;;;;;7.23;100.00;102253.47;5145243;28;20035;-81
2021/12/13 17:52:43;;;;;;;22.40;9.45;;;;;;;7.25;100.00;102247.19;5156668;27;20022;-78
2021/12/13 17:55:11;;;;;;;19.92;9.70;;;;;;;7.32;100.00;102269.63;5133528;28;20032;-77
2021/12/13 17:57:46;;;;;;;20.02;10.10;;;;;;;7.52;100.00;102283.56;5118069;28;20466;-77
2021/12/13 18:00:30;;;;;;;18.08;8.93;;;;;;;7.46;100.00;102284.69;5117231;27;20047;-82
2021/12/13 18:05:37;;;;;;;20.57;9.13;;;;;;;7.11;100.00;102270.69;5153163;22;20040;-85
2021/12/13 18:08:06;;;;;;;20.13;10.07;;;;;;;6.95;100.00;102257.44;5109371;27;20360;-77
2021/12/13 18:11:13;;;;;;;18.88;9.10;;;;;;;7.15;100.00;102260.88;5100850;27;20422;-85
2021/12/13 18:13:45;;;;;;;22.48;9.32;;;;;;;7.04;100.00;102266.63;5134036;27;20058;-79
2021/12/13 18:16:12;;;;;;;19.67;9.93;;;;;;;7.00;100.00;102260.69;5126306;22;20080;-81
2021/12/13 18:18:45;;;;;;;24.08;9.35;;;;;;;7.17;100.00;102294.00;5118073;27;20116;-79
2021/12/13 18:21:12;;;;;;;18.45;8.63;;;;;;;7.23;100.00;102301.59;5087220;27;20088;-81
2021/12/13 18:23:54;;;;;;;17.83;8.85;;;;;;;7.30;100.00;102297.75;5026006;27;20404;-84
2021/12/13 18:27:04;;;;;;;19.73;8.98;;;;;;;7.07;100.00;102277.00;5062497;27;20019;-81
2021/12/13 18:29:30;;;;;;;20.27;9.68;;;;;;;7.11;100.00;102275.94;5101214;22;20024;-80
2021/12/13 18:31:57;;;;;;;20.27;9.65;;;;;;;7.16;100.00;102263.41;5102697;28;20032;-82
2021/12/13 18:34:33;;;;;;;19.88;9.70;;;;;;;7.33;100.00;102299.38;5092741;28;20096;-80
2021/12/13 18:39:58;;;;;;;16.27;8.65;;;;;;;6.92;100.00;102256.72;5008936;28;20109;-81
2021/12/13 18:42:38;;;;;;;21.85;8.90;;;;;;;6.98;100.00;102249.41;5014629;28;20609;-81
2021/12/13 18:45:17;;;;;;;18.98;9.68;;;;;;;7.24;100.00;102297.19;5013341;28;20115;-83
2021/12/13 18:47:57;;;;;;;18.98;8.80;;;;;;;7.24;100.00;102307.69;5007717;28;20029;-78
2021/12/13 18:50:28;;;;;;;18.20;9.00;;;;;;;7.11;100.00;102283.81;5006134;28;20026;-79
2021/12/13 18:53:00;;;;;;;21.42;9.57;;;;;;;7.21;100.00;102305.22;5064245;23;20050;-77
2021/12/13 18:55:32;;;;;;;16.13;9.10;;;;;;;7.29;100.00;102309.19;5065309;28;20132;-77
2021/12/13 18:58:00;;;;;;;18.40;8.52;;;;;;;7.23;100.00;102285.84;5048632;28;20036;-77
2021/12/13 19:00:32;;;;;;;22.13;9.25;;;;;;;6.97;100.00;102257.34;5083209;28;20031;-77
2021/12/13 19:03:28;;;;;;;22.38;8.80;;;;;;;7.20;100.00;102309.66;5072913;28;20024;-78
2021/12/13 19:08:48;;;;;;;27.63;9.07;;;;;;;7.24;100.00;102308.53;5053931;22;20072;-78
2021/12/13 19:11:37;;;;;;;20.67;9.23;;;;;;;7.22;100.00;102305.16;5068410;28;20488;-79
2021/12/13 19:14:30;;;;;;;18.15;9.10;;;;;;;7.21;100.00;102299.97;5121679;22;20028;-79
2021/12/13 19:17:09;;;;;;;18.70;8.80;;;;;;;7.10;100.00;102277.69;5062330;28;20491;-78
2021/12/13 19:19:57;;;;;;;;;;;;;;;;;;;;;
2021/12/13 19:22:40;;;;;;;;;;;;;;;7.23;100.00;102298.97;5085944;28;20035;-78
2021/12/13 19:25:10;;;;;;;21.77;9.05;;;;;;;6.93;100.00;102282.06;5074436;22;19916;-78
2021/12/13 19:27:56;;;;;;;21.70;9.93;;;;;;;6.95;100.00;102260.06;5072222;28;20599;-83
2021/12/13 19:30:39;;;;;;;20.98;9.88;;;;;;;7.02;100.00;102271.97;5075360;28;20042;-78
2021/12/13 19:33:15;;;;;;;19.40;8.75;;;;;;;7.14;100.00;102316.97;5119593;28;20016;-79
2021/12/13 19:35:51;;;;;;;20.35;9.20;;;;;;;6.83;100.00;102279.88;5119355;28;20024;-77
2021/12/13 19:38:29;;;;;;;19.92;9.98;;;;;;;7.08;100.00;102305.81;5096437;28;20036;-82
2021/12/13 19:41:09;;;;;;;21.08;10.15;;;;;;;6.80;100.00;102245.91;5097055;28;20030;-78
2021/12/13 19:43:44;;;;;;;20.45;9.10;;;;;;;7.17;100.00;102301.88;5089916;28;20031;-77
2021/12/13 19:46:11;;;;;;;;;;;;;;;7.04;100.00;102295.53;5074358;28;20023;-78
2021/12/13 19:48:56;;;;;;;19.48;9.82;;;;;;;6.85;100.00;102278.03;5076406;28;19912;-77
2021/12/13 19:51:51;;;;;;;27.27;13.27;;;;;;;6.82;100.00;102253.72;5096164;28;20073;-77
2021/12/13 19:54:25;;;;;;;19.70;9.55;;;;;;;6.98;100.00;102274.84;5087807;28;20030;-77
2021/12/13 19:57:03;;;;;;;17.10;9.25;;;;;;;6.93;100.00;102274.19;5088282;22;20062;-83
2021/12/13 19:59:39;;;;;;;18.33;9.40;;;;;;;6.66;100.00;102235.22;5079459;28;20035;-81
2021/12/13 20:02:16;;;;;;;21.05;9.38;;;;;;;6.93;100.00;102269.81;5099014;28;20032;-83
2021/12/13 20:04:58;;;;;;;17.40;8.75;;;;;;;6.79;100.00;102245.94;5115388;28;20056;-82
2021/12/13 20:07:34;;;;;;;21.20;9.25;;;;;;;7.06;100.00;102278.78;5080371;28;20040;-79
2021/12/13 20:10:30;;;;;;;19.13;9.73;;;;;;;7.02;100.00;102277.22;5170877;22;20062;-83
2021/12/13 20:13:03;;;;;;;22.02;9.60;;;;;;;6.88;100.00;102283.16;5092655;28;20049;-82
2021/12/13 20:15:38;;;;;;;20.05;10.40;;;;;;;7.07;100.00;102271.75;5110906;28;20081;-80
2021/12/13 20:18:20;;;;;;;19.67;9.10;;;;;;;6.71;100.00;102227.97;5110974;28;20043;-80
2021/12/13 20:20:59;;;;;;;18.73;9.35;;;;;;;7.04;100.00;102292.91;5119949;27;20017;-81
2021/12/13 20:23:42;;;;;;;22.67;9.32;;;;;;;6.94;100.00;102263.59;5153378;27;20141;-80
2021/12/13 20:26:12;;;;;;;20.45;9.70;;;;;;;6.84;100.00;102257.13;5152924;27;20023;-83
2021/12/13 20:28:55;;;;;;;21.77;9.68;;;;;;;6.62;100.00;102226.63;5129676;27;20026;-81
2021/12/13 20:31:33;;;;;;;21.17;9.30;;;;;;;6.65;100.00;102228.25;5121369;27;20061;-80
2021/12/13 20:34:26;;;;;;;18.70;8.85;;;;;;;6.69;100.00;102227.19;5138731;27;20513;-81
2021/12/13 20:37:13;;;;;;;24.05;9.70;;;;;;;6.95;100.00;102261.81;5119770;27;20080;-81
2021/12/13 20:39:49;;;;;;;18.80;9.05;;;;;;;6.87;100.00;102259.59;5130511;27;20437;-81
2021/12/13 20:42:51;;;;;;;19.58;9.32;;;;;;;6.57;100.00;102248.78;5107166;28;20088;-86
2021/12/13 20:45:27;;;;;;;20.08;9.93;;;;;;;6.58;100.00;102229.47;5334302;22;20142;-81
2021/12/13 20:48:08;;;;;;;18.88;8.98;;;;;;;6.90;100.00;102262.03;5091686;28;20069;-80
2021/12/13 20:50:48;;;;;;;20.25;8.80;;;;;;;6.71;100.00;102277.84;5071612;28;20037;-81
2021/12/13 20:53:37;;;;;;;18.90;9.13;;;;;;;6.55;100.00;102240.97;5057611;28;20394;-83
2021/12/13 20:56:51;;;;;;;20.75;9.43;;;;;;;6.88;100.00;102261.25;5056454;28;20076;-81
2021/12/13 20:59:50;;;;;;;17.95;7.95;;;;;;;6.85;100.00;102303.44;5009535;28;20038;-83
2021/12/13 21:08:33;;;;;;;17.35;8.27;;;;;;;6.69;100.00;102261.31;5033936;28;20046;-85
2021/12/13 21:13:37;;;;;;;23.58;9.43;;;;;;;6.79;100.00;102240.69;5607677;23;20052;-84
2021/12/13 21:23:46;;;;;;;;;;;;;;;;;;;;;
2021/12/13 21:50:06;;;;;;;18.95;9.38;;;;;;;6.74;100.00;102242.72;5035573;23;20058;-82
2021/12/13 21:53:07;;;;;;;17.80;9.77;;;;;;;6.77;100.00;102267.06;5017979;28;20461;-81
2021/12/13 22:02:20;;;;;;;19.70;9.98;;;;;;;6.94;100.00;102294.28;4912558;29;20316;-82
2021/12/13 22:05:22;;;;;;;19.40;8.70;;;;;;;6.88;100.00;102284.91;4924654;29;20032;-82
2021/12/13 22:10:50;;;;;;;22.73;10.35;;;;;;;6.86;100.00;102258.75;5130650;23;20046;-81
2021/12/13 22:13:52;;;;;;;20.38;9.38;;;;;;;6.88;100.00;102270.03;5004583;28;20041;-80
2021/12/13 22:16:44;;;;;;;18.45;9.70;;;;;;;6.88;100.00;102256.00;5020475;28;20021;-83
2021/12/13 22:19:42;;;;;;;18.00;9.65;;;;;;;7.03;100.00;102280.69;5022984;28;20061;-80
2021/12/13 22:22:32;;;;;;;20.17;10.23;;;;;;;7.00;100.00;102286.97;5023901;28;20162;-81
2021/12/13 22:25:32;;;;;;;18.33;10.18;;;;;;;6.86;100.00;102278.91;5016903;28;20029;-81
2021/12/13 22:28:19;;;;;;;20.55;9.25;;;;;;;6.57;100.00;102233.03;5018437;28;20044;-80
2021/12/13 22:31:16;;;;;;;20.05;10.15;;;;;;;6.74;100.00;102269.81;5017608;28;20077;-80
2021/12/13 22:34:05;;;;;;;23.88;11.05;;;;;;;6.47;100.00;102232.59;5016547;28;20084;-81
2021/12/13 22:36:38;;;;;;;20.77;10.48;;;;;;;6.58;100.00;102222.44;5028938;23;20053;-81
2021/12/13 22:39:09;;;;;;;20.00;10.32;;;;;;;7.00;100.00;102262.47;5021862;28;20127;-80
2021/12/13 22:41:49;;;;;;;23.10;11.35;;;;;;;6.72;100.00;102255.91;5018407;23;20085;-80
2021/12/13 22:44:24;;;;;;;21.67;11.25;;;;;;;6.55;100.00;102232.25;4982478;28;20085;-80
2021/12/13 22:47:03;;;;;;;21.02;10.85;;;;;;;6.72;100.00;102269.03;4997553;28;20080;-80
2021/12/13 22:49:41;;;;;;;20.35;10.45;;;;;;;6.81;100.00;102286.13;4981858;28;20456;-81
2021/12/13 22:52:12;;;;;;;22.88;11.10;;;;;;;6.72;100.00;102260.31;4992901;28;20018;-79
2021/12/13 22:54:40;;;;;;;24.27;11.38;;;;;;;6.93;100.00;102272.44;4964169;28;20073;-79
2021/12/13 22:57:07;;;;;;;22.92;11.18;;;;;;;6.96;100.00;102274.88;5028880;23;20062;-78
2021/12/13 22:59:36;;;;;;;23.33;11.20;;;;;;;6.32;100.00;102228.91;5011914;28;20084;-78
2021/12/13 23:02:21;;;;;;;23.55;11.00;;;;;;;6.13;100.00;102212.31;5017602;28;20121;-80
2021/12/13 23:04:52;;;;;;;21.52;11.02;;;;;;;6.55;100.00;102234.88;5035427;23;20114;-81
2021/12/13 23:07:25;;;;;;;21.83;11.88;;;;;;;6.63;100.00;102245.84;5003240;28;20041;-80
2021/12/13 23:10:19;;;;;;;21.38;11.55;;;;;;;6.74;100.00;102233.06;5017942;28;20104;-81
2021/12/13 23:15:48;;;;;;;23.08;12.15;;;;;;;6.28;100.00;102201.94;5043509;23;20049;-81
2021/12/13 23:18:15;;;;;;;21.48;11.25;;;;;;;6.20;100.00;102206.72;5044616;23;20042;-80
2021/12/13 23:20:46;;;;;;;20.88;11.27;;;;;;;6.60;100.00;102238.97;5003488;23;20046;-81
2021/12/13 23:23:16;;;;;;;24.75;11.77;;;;;;;6.58;100.00;102266.19;4982276;28;20043;-81
2021/12/13 23:25:45;;;;;;;21.02;11.80;;;;;;;6.46;100.00;102236.13;5003190;28;20042;-78
2021/12/13 23:28:19;;;;;;;21.85;11.32;;;;;;;6.70;100.00;102255.16;4992254;28;20094;-79
2021/12/13 23:30:49;;;;;;;22.75;12.18;;;;;;;6.37;100.00;102220.81;5012191;28;20023;-80
2021/12/13 23:33:20;;;;;;;21.65;11.93;;;;;;;6.79;100.00;102273.09;5013996;28;20033;-80
2021/12/13 23:46:58;;;;;;;22.70;12.07;;;;;;;6.69;100.00;102280.53;4978729;28;20081;-79
2021/12/13 23:50:02;;;;;;;21.10;12.05;;;;;;;6.28;100.00;102216.84;4980668;28;20051;-80
2021/12/13 23:52:43;;;;;;;25.77;12.30;;;;;;;6.88;100.00;102269.16;4897579;29;20072;-80
2021/12/13 23:55:09;;;;;;;21.55;12.10;;;;;;;6.64;100.00;102274.66;4897981;29;20040;-80
2021/12/13 23:57:36;;;;;;;23.70;12.68;;;;;;;6.59;100.00;102258.28;4893109;29;20043;-79
